Time;durP1;ratioP1;P1;durP2;ratioP2;P2;SDS_P1;SDS_P2;PMS_P1;PMS_P2;Temp;Humidity;BMP_temperature;BMP_pressure;BME280_temperature;BME280_humidity;BME280_pressure;Samples;Min_cycle;Max_cycle;Signal;HPM_P1;HPM_P2
2022/08/30 00:01:36;;;;;;;2.80;1.60;;;;;;;13.39;96.09;102158.63;2096624;28;25133;-77
2022/08/30 00:02:37;;;;;;;3.30;1.50;;;;;;;13.38;95.79;102155.94;2097096;28;20871;-77
2022/08/30 00:03:47;;;;;;;2.33;1.27;;;;;;;13.39;96.12;102155.03;2096840;28;24656;-77
2022/08/30 00:04:49;;;;;;;2.15;1.50;;;;;;;13.44;96.11;102156.75;2097120;28;24734;-77
2022/08/30 00:05:51;;;;;;;4.03;1.60;;;;;;;13.46;95.86;102156.72;2096556;28;25189;-78
2022/08/30 00:06:53;;;;;;;3.08;1.30;;;;;;;13.46;95.97;102159.41;2096802;28;31887;-77
2022/08/30 00:07:57;;;;;;;3.08;1.52;;;;;;;13.45;95.51;102153.13;2097723;28;21026;-77
2022/08/30 00:09:01;;;;;;;3.20;1.30;;;;;;;13.47;95.94;102155.81;2088339;28;20093;-77
2022/08/30 00:10:03;;;;;;;3.33;1.27;;;;;;;13.43;95.62;102154.09;2088377;28;26572;-77
2022/08/30 00:11:13;;;;;;;2.03;1.05;;;;;;;13.40;95.77;102152.31;2096655;28;20075;-77
2022/08/30 00:12:15;;;;;;;3.03;1.33;;;;;;;13.39;96.12;102152.34;2096467;28;24732;-77
2022/08/30 00:13:19;;;;;;;1.85;1.05;;;;;;;13.33;95.50;102150.63;2097307;28;20037;-77
2022/08/30 00:14:20;;;;;;;3.80;1.48;;;;;;;13.34;95.30;102149.72;2096901;28;23948;-76
2022/08/30 00:15:23;;;;;;;5.15;1.48;;;;;;;13.34;96.17;102155.13;2096880;28;28272;-77
2022/08/30 00:16:25;;;;;;;2.88;1.10;;;;;;;13.30;95.57;102148.84;2088267;28;20033;-77
2022/08/30 00:17:27;;;;;;;3.97;1.45;;;;;;;13.26;95.96;102160.59;2087626;28;25005;-77
2022/08/30 00:18:29;;;;;;;2.85;1.33;;;;;;;13.24;96.17;102154.31;2087842;28;20895;-77
2022/08/30 00:19:31;;;;;;;4.50;1.60;;;;;;;13.26;96.65;102160.59;2096183;28;34851;-77
2022/08/30 00:20:34;;;;;;;2.95;1.50;;;;;;;13.25;96.42;102155.22;2096737;28;29517;-77
2022/08/30 00:21:38;;;;;;;3.10;1.42;;;;;;;13.22;96.52;102155.25;2096272;28;28202;-77
2022/08/30 00:22:40;;;;;;;3.45;1.35;;;;;;;13.16;96.57;102156.25;2087537;28;25821;-77
2022/08/30 00:23:42;;;;;;;3.05;1.40;;;;;;;13.17;96.60;102155.31;2088697;28;22882;-77
2022/08/30 00:24:44;;;;;;;2.28;1.20;;;;;;;13.12;96.65;102154.50;2087712;28;27563;-77
2022/08/30 00:25:46;;;;;;;3.80;1.35;;;;;;;13.18;97.15;102159.78;2079634;28;27013;-77
2022/08/30 00:26:48;;;;;;;5.45;1.48;;;;;;;13.13;96.50;102156.28;2079771;28;20115;-77
2022/08/30 00:27:49;;;;;;;2.60;1.20;;;;;;;13.09;96.58;102158.13;2079546;28;20169;-77
2022/08/30 00:28:51;;;;;;;3.25;1.17;;;;;;;13.09;97.15;102162.59;2079857;28;25007;-77
2022/08/30 00:29:54;;;;;;;4.63;1.60;;;;;;;13.02;96.99;102158.22;2088168;28;20693;-77
2022/08/30 00:30:56;;;;;;;4.60;1.20;;;;;;;12.99;96.92;102172.59;2087617;28;34776;-77
2022/08/30 00:32:01;;;;;;;2.70;1.30;;;;;;;12.94;96.83;102167.28;2088156;28;26847;-78
2022/08/30 00:33:04;;;;;;;2.55;1.38;;;;;;;12.91;97.47;102158.38;2088061;28;26830;-77
2022/08/30 00:34:06;;;;;;;3.08;1.33;;;;;;;12.88;97.12;102171.84;2088193;28;31633;-77
2022/08/30 00:35:11;;;;;;;4.18;1.30;;;;;;;12.86;97.14;102163.78;2088745;28;20099;-78
2022/08/30 00:36:14;;;;;;;2.92;1.63;;;;;;;12.84;97.50;102170.09;2088056;28;32438;-77
2022/08/30 00:37:17;;;;;;;2.65;1.40;;;;;;;12.79;97.41;102172.84;2088117;28;28677;-77
2022/08/30 00:38:21;;;;;;;7.07;1.45;;;;;;;12.75;97.54;102179.16;2071715;28;20124;-77
2022/08/30 00:39:24;;;;;;;3.50;1.67;;;;;;;12.72;97.93;102171.13;2072027;28;31835;-77
2022/08/30 00:40:27;;;;;;;5.03;1.30;;;;;;;12.69;97.79;102172.06;2078776;28;29008;-77
2022/08/30 00:41:31;;;;;;;2.80;1.25;;;;;;;12.64;97.84;102171.25;2078854;28;38362;-78
2022/08/30 00:42:33;;;;;;;3.30;1.60;;;;;;;12.66;98.87;102172.09;2088010;28;26079;-77
2022/08/30 00:43:35;;;;;;;4.50;1.60;;;;;;;12.67;98.58;102172.97;2079319;28;20104;-77
2022/08/30 00:44:39;;;;;;;2.15;1.55;;;;;;;12.62;98.67;102169.50;2079904;28;24178;-77
2022/08/30 00:45:41;;;;;;;4.50;1.80;;;;;;;12.60;98.69;102164.13;2088382;28;26337;-77
2022/08/30 00:46:44;;;;;;;2.95;1.58;;;;;;;12.60;99.06;102165.00;2088173;28;29108;-77
2022/08/30 00:47:46;;;;;;;3.72;1.65;;;;;;;12.61;99.64;102168.56;2088337;28;20430;-77
2022/08/30 00:48:49;;;;;;;3.25;1.42;;;;;;;12.58;99.14;102166.84;2088512;28;20060;-77
2022/08/30 00:49:56;;;;;;;3.30;1.27;;;;;;;12.54;99.42;102170.47;2078550;28;33141;-77
2022/08/30 00:51:04;;;;;;;4.38;1.60;;;;;;;12.51;99.31;102166.94;2080906;28;20642;-77
2022/08/30 00:52:07;;;;;;;2.25;1.35;;;;;;;12.50;98.99;102170.50;2087560;28;28151;-77
2022/08/30 00:53:21;;;;;;;2.65;1.67;;;;;;;12.49;99.64;102169.63;2091490;28;31865;-78
2022/08/30 00:54:27;;;;;;;4.53;1.35;;;;;;;12.45;99.57;102165.16;2087313;28;21827;-77
2022/08/30 00:55:29;;;;;;;2.97;1.50;;;;;;;12.42;99.64;102170.59;2089076;28;39034;-77
2022/08/30 00:56:32;;;;;;;3.67;1.67;;;;;;;12.39;99.16;102168.81;2096214;28;20942;-77
2022/08/30 00:57:34;;;;;;;3.72;1.30;;;;;;;12.36;98.97;102170.66;2087059;28;32438;-78
2022/08/30 00:58:45;;;;;;;1.90;1.40;;;;;;;12.35;99.42;102175.13;2087803;28;29122;-78
2022/08/30 00:59:48;;;;;;;3.42;1.42;;;;;;;12.32;99.74;102172.47;2087303;28;30164;-77
2022/08/30 01:00:55;;;;;;;3.08;1.33;;;;;;;12.30;99.33;102176.09;2089114;28;26973;-77
2022/08/30 01:01:58;;;;;;;5.45;1.20;;;;;;;12.27;99.83;102168.94;2088045;28;20123;-77
2022/08/30 01:03:01;;;;;;;6.55;1.52;;;;;;;12.28;100.00;102167.16;2088336;28;26218;-77
2022/08/30 01:04:07;;;;;;;5.20;1.67;;;;;;;12.27;100.00;102163.56;2096509;28;23567;-77
2022/08/30 01:05:11;;;;;;;6.05;2.00;;;;;;;12.24;99.99;102163.63;2087957;28;20033;-76
2022/08/30 01:06:17;;;;;;;3.08;1.98;;;;;;;12.30;100.00;102165.34;2080367;28;23209;-77
2022/08/30 01:07:18;;;;;;;2.72;1.75;;;;;;;12.29;100.00;102166.25;2087819;28;21451;-78
2022/08/30 01:08:21;;;;;;;2.08;1.60;;;;;;;12.28;100.00;102170.75;2096390;28;29940;-77
2022/08/30 01:09:23;;;;;;;2.55;1.15;;;;;;;12.25;100.00;102169.88;2096805;28;20163;-77
2022/08/30 01:10:25;;;;;;;2.72;1.77;;;;;;;12.20;100.00;102165.44;2096424;28;28902;-77
2022/08/30 01:11:27;;;;;;;3.25;1.20;;;;;;;12.18;100.00;102172.59;2096299;28;20153;-77
2022/08/30 01:12:29;;;;;;;4.50;1.70;;;;;;;12.16;100.00;102171.72;2096451;28;30123;-77
2022/08/30 01:13:34;;;;;;;3.80;1.33;;;;;;;12.14;100.00;102168.19;2087717;28;20189;-77
2022/08/30 01:14:36;;;;;;;2.25;1.23;;;;;;;12.10;100.00;102165.56;2087907;28;26292;-78
2022/08/30 01:15:40;;;;;;;2.65;1.80;;;;;;;12.07;100.00;102165.56;2095831;28;28286;-77
2022/08/30 01:16:45;;;;;;;3.42;1.15;;;;;;;12.02;100.00;102161.16;2096076;28;35937;-77
2022/08/30 01:17:48;;;;;;;4.05;1.65;;;;;;;12.00;100.00;102167.41;2088207;28;20148;-77
2022/08/30 01:18:55;;;;;;;3.13;1.27;;;;;;;11.96;100.00;102165.69;2087944;28;31668;-77
2022/08/30 01:20:06;;;;;;;2.92;1.25;;;;;;;11.89;100.00;102161.22;2087520;28;30827;-77
2022/08/30 01:21:26;;;;;;;2.45;1.38;;;;;;;11.84;100.00;102172.91;2089889;28;27509;-77
2022/08/30 01:22:49;;;;;;;6.03;1.90;;;;;;;11.78;100.00;102169.38;2087504;28;27172;-78
2022/08/30 01:23:56;;;;;;;4.93;1.95;;;;;;;11.74;100.00;102170.31;2089897;28;24810;-77
2022/08/30 01:24:59;;;;;;;2.08;1.85;;;;;;;11.70;100.00;102173.91;2087973;28;20937;-77
2022/08/30 01:26:03;;;;;;;2.58;1.65;;;;;;;11.65;100.00;102176.63;2087765;28;25692;-77
2022/08/30 01:27:10;;;;;;;4.30;1.33;;;;;;;11.61;100.00;102182.91;2087082;28;39358;-79
2022/08/30 01:28:18;;;;;;;3.00;1.30;;;;;;;11.58;100.00;102175.78;2080241;28;30098;-78
2022/08/30 01:29:24;;;;;;;6.65;1.55;;;;;;;11.55;100.00;102173.13;2080587;28;27649;-77
2022/08/30 01:30:28;;;;;;;4.97;1.63;;;;;;;11.53;100.00;102176.72;2072354;28;24146;-78
2022/08/30 01:31:31;;;;;;;2.55;1.35;;;;;;;11.48;100.00;102176.75;2080739;28;22539;-77
2022/08/30 01:32:40;;;;;;;5.53;1.40;;;;;;;11.46;100.00;102175.88;2096670;28;28876;-77
2022/08/30 01:33:42;;;;;;;3.90;1.88;;;;;;;11.44;100.00;102173.19;2096337;28;31152;-77
2022/08/30 01:34:48;;;;;;;2.97;1.33;;;;;;;11.45;100.00;102176.78;2096291;28;27604;-77
2022/08/30 01:36:02;;;;;;;3.00;1.45;;;;;;;11.43;100.00;102176.78;2096355;28;20971;-77
2022/08/30 01:37:04;;;;;;;3.40;1.40;;;;;;;11.42;100.00;102175.00;2096363;28;29008;-78
2022/08/30 01:38:06;;;;;;;2.38;1.48;;;;;;;11.39;100.00;102183.03;2095664;28;31171;-78
2022/08/30 01:39:10;;;;;;;3.83;1.88;;;;;;;11.40;100.00;102183.97;2087647;28;20030;-78
2022/08/30 01:40:17;;;;;;;4.43;1.70;;;;;;;11.39;100.00;102185.72;2087691;28;32544;-77
2022/08/30 01:41:29;;;;;;;2.42;1.80;;;;;;;11.38;100.00;102185.78;2087496;28;24293;-78
2022/08/30 01:42:31;;;;;;;2.80;1.48;;;;;;;11.36;100.00;102180.41;2089381;28;32646;-77
2022/08/30 01:43:35;;;;;;;2.47;1.40;;;;;;;11.34;100.00;102182.22;2087570;28;20046;-78
2022/08/30 01:44:43;;;;;;;2.85;1.20;;;;;;;11.31;100.00;102178.66;2088849;28;20168;-78
2022/08/30 01:45:44;;;;;;;3.03;1.80;;;;;;;11.28;100.00;102184.91;2078796;28;30278;-78
2022/08/30 01:46:47;;;;;;;3.17;1.60;;;;;;;11.26;100.00;102192.97;2080029;28;21005;-77
2022/08/30 01:48:22;;;;;;;1.98;1.33;;;;;;;11.24;100.00;102193.88;2087267;28;26726;-78
2022/08/30 01:49:47;;;;;;;1.98;1.20;;;;;;;11.20;100.00;102192.13;2095919;28;20041;-78
2022/08/30 01:50:48;;;;;;;5.10;1.70;;;;;;;11.17;100.00;102186.78;2096181;28;31740;-78
2022/08/30 01:51:50;;;;;;;3.22;1.55;;;;;;;11.16;100.00;102190.34;2095992;28;26952;-77
2022/08/30 01:52:52;;;;;;;3.72;1.48;;;;;;;11.14;100.00;102194.81;2087217;28;25035;-77
2022/08/30 01:53:57;;;;;;;4.65;2.17;;;;;;;11.14;100.00;102193.03;2086927;28;22609;-78
2022/08/30 01:54:59;;;;;;;6.57;1.92;;;;;;;11.13;100.00;102190.38;2088041;28;25247;-77
2022/08/30 01:56:01;;;;;;;2.83;1.58;;;;;;;11.12;100.00;102196.63;2087865;28;30417;-78
2022/08/30 01:57:04;;;;;;;2.28;1.58;;;;;;;11.10;100.00;102190.38;2088075;28;24055;-77
2022/08/30 01:58:06;;;;;;;4.18;2.08;;;;;;;11.15;100.00;102197.50;2087905;28;25934;-76
2022/08/30 01:59:08;;;;;;;3.30;2.00;;;;;;;11.13;100.00;102193.06;2078878;28;33559;-76
2022/08/30 02:00:10;;;;;;;3.38;1.67;;;;;;;11.11;100.00;102190.38;2078909;28;25905;-77
2022/08/30 02:01:16;;;;;;;4.03;1.83;;;;;;;11.13;100.00;102190.38;2095657;28;33076;-76
2022/08/30 02:02:27;;;;;;;4.10;1.83;;;;;;;11.13;100.00;102193.06;2087559;28;20085;-79
2022/08/30 02:03:33;;;;;;;6.15;1.80;;;;;;;11.12;100.00;102193.94;2089671;28;25190;-79
2022/08/30 02:04:35;;;;;;;3.72;1.98;;;;;;;11.12;100.00;102186.78;2096188;28;29333;-79
2022/08/30 02:05:37;;;;;;;2.40;1.70;;;;;;;11.14;100.00;102184.97;2095075;28;28773;-76
2022/08/30 02:06:40;;;;;;;4.88;2.10;;;;;;;11.17;100.00;102187.66;2095578;28;32653;-79
2022/08/30 02:07:42;;;;;;;3.33;2.00;;;;;;;11.18;100.00;102180.50;2097531;28;20045;-76
2022/08/30 02:08:44;;;;;;;4.25;2.13;;;;;;;11.23;100.00;102187.63;2088159;28;31736;-77
2022/08/30 02:09:46;;;;;;;3.55;2.00;;;;;;;11.21;100.00;102185.84;2089147;28;20164;-77
2022/08/30 02:10:48;;;;;;;3.78;1.90;;;;;;;11.20;100.00;102193.00;2097540;28;26662;-77
2022/08/30 02:11:50;;;;;;;3.67;1.80;;;;;;;11.20;100.00;102190.31;2097887;28;20068;-77
2022/08/30 02:12:52;;;;;;;3.97;2.10;;;;;;;11.20;100.00;102192.13;2096950;28;27956;-77
2022/08/30 02:13:54;;;;;;;3.55;2.45;;;;;;;11.27;100.00;102183.16;2097468;28;22292;-77
2022/08/30 02:14:56;;;;;;;3.10;1.83;;;;;;;11.26;100.00;102187.59;2097241;28;21805;-77
2022/08/30 02:15:58;;;;;;;3.85;2.20;;;;;;;11.28;100.00;102184.91;2104638;28;31008;-77
2022/08/30 02:17:01;;;;;;;4.68;2.45;;;;;;;11.31;100.00;102186.72;2104762;28;30798;-77
2022/08/30 02:18:03;;;;;;;4.82;2.30;;;;;;;11.40;100.00;102186.66;2097867;28;30327;-77
2022/08/30 02:19:05;;;;;;;4.88;2.50;;;;;;;11.35;100.00;102183.09;2088451;28;25153;-77
2022/08/30 02:20:08;;;;;;;3.35;1.90;;;;;;;11.34;100.00;102190.25;2088926;28;28330;-77
2022/08/30 02:21:12;;;;;;;6.97;2.55;;;;;;;11.32;100.00;102185.78;2097624;28;23853;-77
2022/08/30 02:22:15;;;;;;;4.65;2.25;;;;;;;11.30;100.00;102195.63;2097428;28;29978;-77
2022/08/30 02:23:18;;;;;;;3.60;2.10;;;;;;;11.28;100.00;102187.59;2096543;28;32311;-77
2022/08/30 02:24:20;;;;;;;2.95;1.90;;;;;;;11.25;100.00;102190.28;2088342;28;20150;-77
2022/08/30 02:25:22;;;;;;;4.93;1.80;;;;;;;11.22;100.00;102187.66;2079453;28;29354;-78
2022/08/30 02:26:25;;;;;;;3.50;1.88;;;;;;;11.22;100.00;102190.31;2088307;28;23131;-77
2022/08/30 02:27:27;;;;;;;3.40;2.08;;;;;;;11.20;100.00;102186.75;2083058;28;23342;-78
2022/08/30 02:28:29;;;;;;;2.80;1.75;;;;;;;11.19;100.00;102193.00;2079741;28;37803;-77
2022/08/30 02:29:32;;;;;;;3.22;1.90;;;;;;;11.18;100.00;102188.53;2079952;28;20761;-77
2022/08/30 02:30:34;;;;;;;3.13;2.28;;;;;;;11.15;100.00;102184.09;2088559;28;31652;-77
2022/08/30 02:31:39;;;;;;;4.93;2.05;;;;;;;11.10;100.00;102185.91;2088103;28;38389;-78
2022/08/30 02:32:41;;;;;;;4.80;2.15;;;;;;;11.05;100.00;102191.31;2089412;28;23349;-77
2022/08/30 02:33:43;;;;;;;3.58;1.77;;;;;;;11.02;100.00;102185.06;2088816;28;28716;-77
2022/08/30 02:34:47;;;;;;;5.53;1.92;;;;;;;11.00;100.00;102185.06;2089544;28;20076;-77
2022/08/30 02:35:48;;;;;;;3.75;1.83;;;;;;;10.97;100.00;102190.44;2088851;28;22729;-78
2022/08/30 02:36:50;;;;;;;2.42;1.90;;;;;;;10.96;100.00;102190.44;2089232;28;24632;-77
2022/08/30 02:37:52;;;;;;;3.75;2.08;;;;;;;10.94;100.00;102192.25;2088826;28;27874;-77
2022/08/30 02:38:54;;;;;;;2.45;1.90;;;;;;;10.92;100.00;102186.00;2088735;28;38079;-77
2022/08/30 02:39:59;;;;;;;4.07;2.08;;;;;;;10.88;100.00;102186.00;2088891;28;20044;-77
2022/08/30 02:41:04;;;;;;;2.58;1.80;;;;;;;10.86;100.00;102193.16;2089848;28;20041;-77
2022/08/30 02:42:06;;;;;;;3.10;2.15;;;;;;;10.85;100.00;102186.00;2088887;28;25123;-77
2022/08/30 02:43:08;;;;;;;4.38;2.28;;;;;;;10.85;100.00;102191.38;2088777;28;30705;-77
2022/08/30 02:44:12;;;;;;;4.07;2.22;;;;;;;10.84;100.00;102188.72;2088772;28;26794;-77
2022/08/30 02:45:14;;;;;;;3.72;2.15;;;;;;;10.82;100.00;102190.50;2088157;28;31066;-77
2022/08/30 02:46:19;;;;;;;2.67;2.40;;;;;;;10.83;100.00;102201.19;2088063;28;23802;-77
2022/08/30 02:47:21;;;;;;;4.03;2.05;;;;;;;10.83;100.00;102192.28;2088829;28;35966;-77
2022/08/30 02:48:23;;;;;;;3.80;2.80;;;;;;;10.82;100.00;102198.53;2071353;28;38587;-77
2022/08/30 02:49:25;;;;;;;3.75;1.90;;;;;;;10.80;100.00;102194.97;2063937;28;26386;-77
2022/08/30 02:50:42;;;;;;;3.70;1.80;;;;;;;10.76;100.00;102191.41;2073235;28;26523;-76
2022/08/30 02:51:44;;;;;;;3.80;2.40;;;;;;;10.75;100.00;102191.41;2071864;28;26566;-77
2022/08/30 02:52:49;;;;;;;5.18;2.28;;;;;;;10.73;100.00;102183.41;2074702;28;20374;-77
2022/08/30 02:53:50;;;;;;;5.22;2.05;;;;;;;10.72;100.00;102178.94;2097738;28;20126;-77
2022/08/30 02:54:53;;;;;;;5.10;2.40;;;;;;;10.70;100.00;102184.28;2097016;28;23625;-77
2022/08/30 02:55:55;;;;;;;4.88;2.63;;;;;;;10.72;100.00;102178.94;2097099;28;24019;-78
2022/08/30 02:56:57;;;;;;;4.78;2.53;;;;;;;10.68;100.00;102188.75;2097360;28;20045;-77
2022/08/30 02:57:59;;;;;;;3.70;2.17;;;;;;;10.67;100.00;102181.59;2088279;28;27744;-77
2022/08/30 02:59:01;;;;;;;3.78;2.58;;;;;;;10.65;100.00;102180.72;2088085;28;26816;-77
2022/08/30 03:00:08;;;;;;;2.85;2.20;;;;;;;10.63;100.00;102184.31;2097743;28;20107;-77
2022/08/30 03:01:13;;;;;;;4.40;2.40;;;;;;;10.63;100.00;102187.00;2087936;28;25846;-76
2022/08/30 03:02:17;;;;;;;4.07;2.53;;;;;;;10.62;100.00;102185.19;2089708;28;20037;-77
2022/08/30 03:03:19;;;;;;;3.33;2.15;;;;;;;10.57;100.00;102179.88;2097233;28;26008;-76
2022/08/30 03:04:22;;;;;;;5.10;1.95;;;;;;;10.56;100.00;102178.09;2097371;28;24829;-77
2022/08/30 03:05:28;;;;;;;3.45;2.50;;;;;;;10.53;100.00;102175.41;2088167;28;20056;-77
2022/08/30 03:06:32;;;;;;;5.32;2.20;;;;;;;10.52;100.00;102180.78;2088432;28;29215;-78
2022/08/30 03:07:35;;;;;;;3.90;2.50;;;;;;;10.49;100.00;102182.56;2097216;28;20222;-77
2022/08/30 03:08:36;;;;;;;5.22;2.40;;;;;;;10.49;100.00;102181.69;2096974;28;28875;-77
2022/08/30 03:09:38;;;;;;;3.42;2.55;;;;;;;10.47;100.00;102180.78;2087897;28;22171;-76
2022/08/30 03:10:40;;;;;;;6.20;2.40;;;;;;;10.43;100.00;102187.06;2088191;28;28113;-77
2022/08/30 03:11:42;;;;;;;5.55;2.50;;;;;;;10.42;100.00;102187.94;2096547;28;24584;-78
2022/08/30 03:12:47;;;;;;;7.43;2.70;;;;;;;10.39;100.00;102186.19;2097008;28;29227;-77
2022/08/30 03:13:49;;;;;;;6.15;2.40;;;;;;;10.39;100.00;102190.63;2097461;28;20037;-78
2022/08/30 03:14:52;;;;;;;5.07;2.90;;;;;;;10.37;100.00;102192.41;2097242;28;25335;-77
2022/08/30 03:15:54;;;;;;;3.83;2.05;;;;;;;10.31;100.00;102188.84;2097466;28;20041;-77
2022/08/30 03:16:56;;;;;;;3.17;2.30;;;;;;;10.30;100.00;102188.81;2097208;28;21605;-77
2022/08/30 03:17:57;;;;;;;5.00;2.30;;;;;;;10.28;100.00;102188.84;2095983;28;36071;-77
2022/08/30 03:18:59;;;;;;;6.68;3.00;;;;;;;10.27;100.00;102191.50;2097770;28;20091;-77
2022/08/30 03:20:02;;;;;;;3.95;2.10;;;;;;;10.25;100.00;102194.19;2096651;28;24190;-77
2022/08/30 03:21:13;;;;;;;3.85;2.33;;;;;;;10.21;100.00;102197.78;2097546;28;22229;-77
2022/08/30 03:22:16;;;;;;;4.00;3.28;;;;;;;10.20;100.00;102190.63;2096878;28;29358;-77
2022/08/30 03:23:18;;;;;;;6.63;3.75;;;;;;;10.19;100.00;102198.66;2087116;28;27902;-77
2022/08/30 03:24:20;;;;;;;3.80;3.05;;;;;;;10.18;100.00;102194.22;2088647;28;23004;-77
2022/08/30 03:25:23;;;;;;;4.53;3.13;;;;;;;10.16;100.00;102191.53;2097703;28;20033;-77
2022/08/30 03:26:24;;;;;;;4.45;3.10;;;;;;;10.19;100.00;102190.63;2087823;28;25811;-77
2022/08/30 03:27:28;;;;;;;5.28;3.80;;;;;;;10.20;100.00;102189.75;2088546;28;20079;-77
2022/08/30 03:28:29;;;;;;;5.63;3.45;;;;;;;10.17;100.00;102195.97;2087536;28;31701;-77
2022/08/30 03:29:31;;;;;;;5.43;4.00;;;;;;;10.15;100.00;102197.75;2088485;28;20046;-77
2022/08/30 03:30:34;;;;;;;4.43;3.08;;;;;;;10.15;100.00;102194.19;2097136;28;22382;-77
2022/08/30 03:31:35;;;;;;;4.25;3.33;;;;;;;10.11;100.00;102193.31;2097046;28;27885;-77
2022/08/30 03:32:39;;;;;;;5.45;4.40;;;;;;;10.13;100.00;102195.09;2096682;28;35139;-77
2022/08/30 03:33:42;;;;;;;7.15;4.93;;;;;;;10.12;100.00;102187.97;2096761;28;28564;-76
2022/08/30 03:34:44;;;;;;;6.43;4.43;;;;;;;10.12;100.00;102195.06;2097132;28;23734;-77
2022/08/30 03:35:48;;;;;;;4.13;3.60;;;;;;;10.12;100.00;102190.63;2097511;28;20037;-76
2022/08/30 03:36:55;;;;;;;5.85;4.00;;;;;;;10.11;100.00;102196.00;2096571;28;34147;-77
2022/08/30 03:37:58;;;;;;;7.30;3.53;;;;;;;10.08;100.00;102188.84;2088101;28;20225;-76
2022/08/30 03:38:59;;;;;;;6.95;4.75;;;;;;;10.09;100.00;102193.31;2088210;28;39364;-76
2022/08/30 03:40:06;;;;;;;6.85;4.03;;;;;;;10.07;100.00;102189.75;2096524;28;32798;-77
2022/08/30 03:41:10;;;;;;;5.97;5.30;;;;;;;10.17;100.00;102195.09;2096988;28;32732;-76
2022/08/30 03:42:12;;;;;;;9.27;6.60;;;;;;;10.22;100.00;102186.16;2096773;28;27199;-77
2022/08/30 03:43:14;;;;;;;8.63;6.15;;;;;;;10.24;100.00;102186.16;2097179;28;20097;-76
2022/08/30 03:44:16;;;;;;;5.97;4.90;;;;;;;10.19;100.00;102182.59;2096581;28;33205;-76
2022/08/30 03:45:19;;;;;;;8.25;4.28;;;;;;;10.19;100.00;102178.13;2097065;28;26725;-77
2022/08/30 03:46:23;;;;;;;6.82;5.20;;;;;;;10.19;100.00;102185.25;2096715;28;23793;-76
2022/08/30 03:47:28;;;;;;;6.07;4.38;;;;;;;10.17;100.00;102179.91;2096200;28;37478;-77
2022/08/30 03:48:30;;;;;;;6.65;5.03;;;;;;;10.21;100.00;102181.72;2088436;28;22802;-77
2022/08/30 03:49:33;;;;;;;7.35;4.65;;;;;;;10.22;100.00;102183.47;2088360;28;23528;-77
2022/08/30 03:50:35;;;;;;;5.50;4.90;;;;;;;10.20;100.00;102185.28;2096597;28;32253;-76
2022/08/30 03:51:37;;;;;;;4.45;4.05;;;;;;;10.16;100.00;102188.84;2096936;28;20126;-76
2022/08/30 03:52:39;;;;;;;7.93;5.03;;;;;;;10.13;100.00;102186.16;2096520;28;31955;-76
2022/08/30 03:53:41;;;;;;;4.15;3.75;;;;;;;10.11;100.00;102193.31;2071183;28;22976;-76
2022/08/30 03:54:42;;;;;;;4.13;3.72;;;;;;;10.08;100.00;102190.63;2071768;28;29829;-76
2022/08/30 03:55:44;;;;;;;4.40;3.42;;;;;;;10.05;100.00;102186.19;2079413;28;33582;-76
2022/08/30 03:56:46;;;;;;;6.90;3.90;;;;;;;10.04;100.00;102199.56;2071421;28;28028;-76
2022/08/30 03:57:48;;;;;;;6.88;4.18;;;;;;;10.02;100.00;102193.31;2080090;28;20112;-76
2022/08/30 03:58:50;;;;;;;5.90;3.60;;;;;;;9.99;100.00;102193.31;2088576;28;26453;-76
2022/08/30 03:59:51;;;;;;;5.15;3.50;;;;;;;9.97;100.00;102189.75;2088268;28;22842;-76
2022/08/30 04:00:53;;;;;;;5.93;3.40;;;;;;;9.94;100.00;102188.88;2088382;28;30588;-77
2022/08/30 04:01:55;;;;;;;9.13;3.83;;;;;;;9.92;100.00;102198.69;2088527;28;25578;-77
2022/08/30 04:02:57;;;;;;;4.78;3.40;;;;;;;9.90;100.00;102203.09;2088295;28;23029;-76
2022/08/30 04:03:59;;;;;;;7.18;3.58;;;;;;;9.87;100.00;102197.78;2088432;28;31783;-76
2022/08/30 04:05:01;;;;;;;6.28;3.97;;;;;;;9.86;100.00;102201.34;2088344;28;24931;-76
2022/08/30 04:06:03;;;;;;;4.90;3.47;;;;;;;9.86;100.00;102198.66;2088658;28;20980;-76
2022/08/30 04:07:05;;;;;;;5.80;3.83;;;;;;;9.87;100.00;102196.88;2088510;28;21900;-77
2022/08/30 04:08:07;;;;;;;5.30;4.38;;;;;;;9.88;100.00;102198.66;2088211;28;28565;-76
2022/08/30 04:09:09;;;;;;;4.30;3.63;;;;;;;9.86;100.00;102190.63;2088580;28;29143;-76
2022/08/30 04:10:11;;;;;;;5.65;3.80;;;;;;;9.85;100.00;102194.22;2088406;28;36959;-76
2022/08/30 04:11:16;;;;;;;9.27;4.93;;;;;;;9.87;100.00;102192.44;2088642;28;20046;-76
2022/08/30 04:12:20;;;;;;;6.13;5.45;;;;;;;9.92;100.00;102200.44;2088876;28;20041;-76
2022/08/30 04:13:23;;;;;;;6.88;6.00;;;;;;;10.02;100.00;102190.66;2088427;28;26334;-76
2022/08/30 04:14:25;;;;;;;8.90;5.63;;;;;;;9.98;100.00;102188.84;2087688;28;38621;-76
2022/08/30 04:15:27;;;;;;;7.20;5.70;;;;;;;9.99;100.00;102196.00;2087989;28;28287;-77
2022/08/30 04:16:29;;;;;;;6.47;5.30;;;;;;;9.99;100.00;102196.00;2088710;28;20080;-76
2022/08/30 04:17:31;;;;;;;6.97;4.90;;;;;;;10.00;100.00;102189.75;2088174;28;32223;-76
2022/08/30 04:18:36;;;;;;;6.95;5.10;;;;;;;10.00;100.00;102187.09;2088495;28;20033;-76
2022/08/30 04:19:37;;;;;;;5.20;4.22;;;;;;;10.01;100.00;102194.19;2088012;28;28286;-76
2022/08/30 04:20:39;;;;;;;7.82;4.47;;;;;;;10.02;100.00;102191.53;2088109;28;30478;-76
2022/08/30 04:21:43;;;;;;;6.80;4.72;;;;;;;10.01;100.00;102192.41;2088442;28;20140;-76
2022/08/30 04:22:45;;;;;;;5.80;4.68;;;;;;;10.01;100.00;102184.38;2088526;28;32505;-77
2022/08/30 04:23:47;;;;;;;5.28;4.28;;;;;;;10.01;100.00;102192.41;2096442;28;34960;-76
2022/08/30 04:24:49;;;;;;;6.30;4.30;;;;;;;10.01;100.00;102194.19;2097084;28;20036;-77
2022/08/30 04:25:50;;;;;;;7.35;4.95;;;;;;;10.04;100.00;102194.22;2096756;28;23835;-77
2022/08/30 04:26:52;;;;;;;6.03;3.70;;;;;;;10.03;100.00;102195.09;2096651;28;20037;-77
2022/08/30 04:27:56;;;;;;;6.30;4.40;;;;;;;10.05;100.00;102204.00;2096339;28;31136;-76
2022/08/30 04:28:58;;;;;;;7.53;4.40;;;;;;;10.05;100.00;102193.28;2096181;28;23824;-76
2022/08/30 04:30:00;;;;;;;9.45;5.20;;;;;;;10.07;100.00;102192.41;2095869;28;31602;-76
2022/08/30 04:31:11;;;;;;;6.35;5.18;;;;;;;10.07;100.00;102196.88;2087589;28;20961;-76
2022/08/30 04:32:13;;;;;;;8.57;4.88;;;;;;;10.05;100.00;102193.28;2088998;28;25729;-76
2022/08/30 04:33:16;;;;;;;7.68;4.82;;;;;;;10.10;100.00;102199.53;2096669;28;23773;-76
2022/08/30 04:34:17;;;;;;;8.45;5.53;;;;;;;10.21;100.00;102197.78;2096627;28;31269;-76
2022/08/30 04:35:20;;;;;;;8.52;5.43;;;;;;;10.18;100.00;102200.44;2096185;28;39359;-76
2022/08/30 04:36:21;;;;;;;6.75;4.88;;;;;;;10.17;100.00;102206.66;2087793;28;20054;-76
2022/08/30 04:37:23;;;;;;;6.22;5.30;;;;;;;10.17;100.00;102193.28;2087517;28;29555;-76
2022/08/30 04:38:25;;;;;;;9.30;5.30;;;;;;;10.17;100.00;102201.31;2096559;28;28000;-76
2022/08/30 04:39:31;;;;;;;8.00;5.22;;;;;;;10.19;100.00;102202.19;2097254;28;20037;-76
2022/08/30 04:40:34;;;;;;;6.05;4.70;;;;;;;10.22;100.00;102199.53;2096504;28;31064;-76
2022/08/30 04:41:39;;;;;;;8.13;4.90;;;;;;;10.30;100.00;102202.19;2096239;28;29422;-76
2022/08/30 04:42:45;;;;;;;5.65;4.60;;;;;;;10.31;100.00;102206.69;2096006;28;22947;-76
2022/08/30 04:43:50;;;;;;;4.85;4.15;;;;;;;10.35;100.00;102216.50;2096341;28;30906;-76
2022/08/30 04:44:53;;;;;;;7.60;5.03;;;;;;;10.39;100.00;102204.00;2095797;28;31362;-77
2022/08/30 04:45:56;;;;;;;6.07;4.47;;;;;;;10.42;100.00;102207.56;2096602;28;23293;-77
2022/08/30 04:46:58;;;;;;;6.32;4.60;;;;;;;10.45;100.00;102204.00;2096474;28;24255;-76
2022/08/30 04:48:02;;;;;;;7.05;4.55;;;;;;;10.47;100.00;102197.75;2087309;28;24920;-76
2022/08/30 04:49:04;;;;;;;8.98;4.65;;;;;;;10.53;100.00;102206.66;2086803;28;39675;-76
2022/08/30 04:50:09;;;;;;;5.60;4.13;;;;;;;10.56;100.00;102207.53;2096515;28;34154;-76
2022/08/30 04:51:15;;;;;;;6.43;4.28;;;;;;;10.64;100.00;102205.75;2095914;28;30650;-76
2022/08/30 04:52:16;;;;;;;5.95;4.20;;;;;;;10.84;100.00;102210.16;2087854;28;23179;-76
2022/08/30 04:53:18;;;;;;;6.70;4.35;;;;;;;11.11;100.00;102200.19;2087923;28;26170;-77
2022/08/30 04:54:20;;;;;;;5.63;4.40;;;;;;;11.42;100.00;102200.94;2096732;28;28042;-77